createdAt,value
2023-01-08T00:01:17.683Z,99726.78
2023-01-08T00:03:45.045Z,99719.44
2023-01-08T00:06:16.454Z,99718.09
2023-01-08T00:08:44.480Z,99715.59
2023-01-08T00:11:12.883Z,99719.94
2023-01-08T00:13:40.166Z,99720.72
2023-01-08T00:16:17.985Z,99720.38
2023-01-08T00:18:47.213Z,99727.94
2023-01-08T00:21:14.348Z,99719.88
2023-01-08T00:23:41.309Z,99718.88
2023-01-08T00:26:10.779Z,99722.00
2023-01-08T00:28:39.157Z,99706.25
2023-01-08T00:31:13.224Z,99693.34
2023-01-08T00:33:42.145Z,99696.50
2023-01-08T00:36:15.112Z,99696.03
2023-01-08T00:38:43.938Z,99689.34
2023-01-08T00:41:12.074Z,99689.56
2023-01-08T00:43:39.097Z,99676.16
2023-01-08T00:46:07.309Z,99676.28
2023-01-08T00:48:38.564Z,99678.28
2023-01-08T00:51:09.665Z,99680.81
2023-01-08T00:53:38.095Z,99673.47
2023-01-08T00:56:10.043Z,99677.66
2023-01-08T00:58:37.462Z,99667.09
2023-01-08T01:01:14.472Z,99667.78
2023-01-08T01:03:42.629Z,99682.72
2023-01-08T01:06:13.244Z,99669.97
2023-01-08T01:08:40.855Z,99665.63
2023-01-08T01:11:14.942Z,99670.16
2023-01-08T01:13:41.616Z,99663.63
2023-01-08T01:16:09.085Z,99664.13
2023-01-08T01:18:35.991Z,99659.78
2023-01-08T01:21:02.839Z,99662.47
2023-01-08T01:23:29.433Z,99655.78
2023-01-08T01:25:56.067Z,99646.03
2023-01-08T01:28:22.753Z,99644.72
2023-01-08T01:30:57.331Z,99640.66
2023-01-08T01:33:24.278Z,99641.16
2023-01-08T01:36:01.069Z,99636.94
2023-01-08T01:38:28.541Z,99637.31
2023-01-08T01:40:55.694Z,99643.53
2023-01-08T01:43:37.252Z,99655.44
2023-01-08T01:46:21.076Z,99643.84
2023-01-08T01:48:55.082Z,99646.53
2023-01-08T01:51:22.466Z,99642.84
2023-01-08T01:53:52.829Z,99641.00
2023-01-08T01:56:20.599Z,99638.00
2023-01-08T01:58:47.357Z,99640.84
2023-01-08T02:01:14.287Z,99637.00
2023-01-08T02:03:41.313Z,99620.91
2023-01-08T02:06:49.145Z,99636.16
2023-01-08T02:09:37.460Z,99637.84
2023-01-08T02:12:44.527Z,99622.78
2023-01-08T02:16:00.928Z,99622.09
2023-01-08T02:18:47.006Z,99621.25
2023-01-08T02:21:40.909Z,99616.72
2023-01-08T02:24:47.412Z,99617.41
2023-01-08T02:27:18.647Z,99616.91
2023-01-08T02:29:48.107Z,99606.47
2023-01-08T02:32:15.316Z,99616.72
2023-01-08T02:34:41.934Z,99610.53
2023-01-08T02:37:10.008Z,99610.53
2023-01-08T02:40:07.342Z,99609.53
2023-01-08T02:42:54.077Z,99609.53
2023-01-08T02:45:52.613Z,99608.84
2023-01-08T02:48:58.686Z,99609.69
2023-01-08T02:51:57.214Z,99598.13
2023-01-08T02:54:32.121Z,99592.91
2023-01-08T02:57:10.987Z,99594.56
2023-01-08T02:59:43.064Z,99596.25
2023-01-08T03:02:12.540Z,99591.72
2023-01-08T03:04:59.912Z,99586.91
2023-01-08T03:07:27.309Z,99594.09
2023-01-08T03:09:55.095Z,99591.72
2023-01-08T03:12:53.094Z,99585.19
2023-01-08T03:15:34.001Z,99585.00
2023-01-08T03:18:13.748Z,99574.59
2023-01-08T03:20:42.581Z,99567.72
2023-01-08T03:23:13.936Z,99583.81
2023-01-08T03:25:46.862Z,99578.94
2023-01-08T03:28:32.915Z,99581.97
2023-01-08T03:31:02.782Z,99582.78
2023-01-08T03:33:33.094Z,99571.91
2023-01-08T03:36:06.923Z,99566.91
2023-01-08T03:38:46.904Z,99589.19
2023-01-08T03:41:22.666Z,99576.13
2023-01-08T03:43:49.611Z,99578.44
2023-01-08T03:46:34.189Z,99585.13
2023-01-08T03:49:04.106Z,99585.06
2023-01-08T03:51:45.174Z,99587.06
2023-01-08T03:54:23.495Z,99580.72
2023-01-08T03:56:50.133Z,99584.38
2023-01-08T03:59:17.906Z,99590.09
2023-01-08T04:01:44.764Z,99583.88
2023-01-08T04:04:12.356Z,99582.19
2023-01-08T04:06:39.503Z,99586.31
2023-01-08T04:09:06.776Z,99582.38
2023-01-08T04:11:33.450Z,99573.63
2023-01-08T04:14:00.172Z,99581.59
2023-01-08T04:16:26.987Z,99588.91
2023-01-08T04:18:53.852Z,99588.22
2023-01-08T04:21:20.556Z,99587.19
2023-01-08T04:23:47.676Z,99579.66
2023-01-08T04:26:14.378Z,99571.31
2023-01-08T04:28:44.127Z,99577.38
2023-01-08T04:31:10.932Z,99566.84
2023-01-08T04:33:37.872Z,99572.09
2023-01-08T04:36:05.904Z,99561.25
2023-01-08T04:38:32.620Z,99558.75
2023-01-08T04:41:02.408Z,99558.50
2023-01-08T04:43:31.052Z,99562.31
2023-01-08T04:46:01.326Z,99562.13
2023-01-08T04:48:30.764Z,99555.91
2023-01-08T04:51:03.030Z,99558.09
2023-01-08T04:53:34.302Z,99556.13
2023-01-08T04:56:11.228Z,99540.03
2023-01-08T04:58:39.699Z,99540.16
2023-01-08T05:01:26.646Z,99534.41
2023-01-08T05:03:57.330Z,99524.53
2023-01-08T05:30:34.286Z,99520.75
2023-01-08T05:41:05.073Z,99518.91
2023-01-08T05:43:33.265Z,99529.94
2023-01-08T05:46:01.847Z,99526.09
2023-01-08T05:48:33.236Z,99529.78
2023-01-08T05:50:59.947Z,99528.72
2023-01-08T05:53:26.654Z,99526.00
2023-01-08T05:56:04.474Z,99520.94
2023-01-08T05:58:31.884Z,99513.38
2023-01-08T06:01:07.310Z,99503.44
2023-01-08T06:03:34.045Z,99504.75
2023-01-08T06:06:08.243Z,99509.03
2023-01-08T06:08:35.729Z,99508.69
2023-01-08T06:11:07.477Z,99511.22
2023-01-08T06:13:37.908Z,99504.50
2023-01-08T06:16:05.454Z,99512.53
2023-01-08T06:18:34.695Z,99516.69
2023-01-08T06:21:02.840Z,99512.41
2023-01-08T06:23:29.576Z,99517.66
2023-01-08T06:26:00.367Z,99517.16
2023-01-08T06:28:27.490Z,99513.72
2023-01-08T06:30:54.155Z,99504.84
2023-01-08T06:33:21.635Z,99517.56
2023-01-08T06:35:48.924Z,99512.31
2023-01-08T06:38:21.726Z,99516.13
2023-01-08T06:40:48.356Z,99512.09
2023-01-08T06:43:15.368Z,99503.53
2023-01-08T06:45:42.051Z,99500.31
2023-01-08T06:48:08.911Z,99498.66
2023-01-08T06:50:35.778Z,99508.34
2023-01-08T06:53:02.445Z,99501.78
2023-01-08T06:55:29.086Z,99497.56
2023-01-08T06:57:58.335Z,99504.22
2023-01-08T07:00:27.292Z,99497.53
2023-01-08T07:02:55.386Z,99505.75
2023-01-08T07:05:24.167Z,99503.75
2023-01-08T07:07:51.380Z,99504.22
2023-01-08T07:10:20.798Z,99501.09
2023-01-08T07:12:49.306Z,99496.09
2023-01-08T07:15:16.742Z,99499.47
2023-01-08T07:17:43.339Z,99497.97
2023-01-08T07:20:11.262Z,99498.19
2023-01-08T07:22:37.863Z,99496.88
2023-01-08T07:25:05.435Z,99492.34
2023-01-08T07:27:32.127Z,99489.69
2023-01-08T07:30:01.912Z,99492.34
2023-01-08T07:32:28.711Z,99489.16
2023-01-08T07:34:59.027Z,99490.63
2023-01-08T07:37:29.226Z,99489.78
2023-01-08T07:39:55.867Z,99488.28
2023-01-08T07:42:22.618Z,99482.22
2023-01-08T07:44:49.730Z,99477.56
2023-01-08T07:47:17.059Z,99477.22
2023-01-08T07:49:43.799Z,99480.13
2023-01-08T07:52:10.720Z,99486.84
2023-01-08T07:54:37.302Z,99476.47
2023-01-08T07:57:04.400Z,99479.56
2023-01-08T07:59:30.996Z,99476.22
2023-01-08T08:01:57.705Z,99480.09
2023-01-08T08:04:24.576Z,99485.69
2023-01-08T08:06:51.459Z,99489.03
2023-01-08T08:09:18.086Z,99484.50
2023-01-08T08:11:44.785Z,99483.19
2023-01-08T08:14:16.154Z,99488.22
2023-01-08T08:16:42.744Z,99478.34
2023-01-08T08:19:12.565Z,99477.16
2023-01-08T08:21:39.449Z,99474.00
2023-01-08T08:24:07.032Z,99478.03
2023-01-08T08:26:33.675Z,99483.06
2023-01-08T08:29:00.300Z,99483.22
2023-01-08T08:31:27.348Z,99479.38
2023-01-08T08:33:53.972Z,99473.16
2023-01-08T08:36:20.611Z,99467.13
2023-01-08T08:38:47.199Z,99466.28
2023-01-08T08:41:13.978Z,99463.47
2023-01-08T08:43:43.813Z,99470.34
2023-01-08T08:46:10.623Z,99467.31
2023-01-08T08:48:37.282Z,99468.69
2023-01-08T08:51:04.704Z,99461.66
2023-01-08T08:53:31.476Z,99460.66
2023-01-08T08:55:59.338Z,99463.03
2023-01-08T08:58:26.181Z,99456.81
2023-01-08T09:00:52.797Z,99456.31
2023-01-08T09:03:19.789Z,99451.13
2023-01-08T09:05:49.480Z,99459.16
2023-01-08T09:08:16.103Z,99460.19
2023-01-08T09:10:43.550Z,99458.19
2023-01-08T09:13:10.784Z,99455.16
2023-01-08T09:15:38.803Z,99464.91
2023-01-08T09:18:06.025Z,99458.66
2023-01-08T09:20:32.983Z,99453.16
2023-01-08T09:23:01.831Z,99449.44
2023-01-08T09:25:29.484Z,99463.56
2023-01-08T09:28:06.098Z,99458.19
2023-01-08T09:30:34.526Z,99457.50
2023-01-08T09:33:04.030Z,99465.88
2023-01-08T09:35:33.660Z,99469.22
2023-01-08T09:38:00.804Z,99470.72
2023-01-08T09:41:07.408Z,99476.72
2023-01-08T09:43:43.446Z,99475.69
2023-01-08T09:46:13.502Z,99470.47
2023-01-08T09:48:42.310Z,99475.03
2023-01-08T09:51:17.699Z,99472.47
2023-01-08T09:53:51.037Z,99469.66
2023-01-08T09:56:19.706Z,99462.44
2023-01-08T09:58:55.639Z,99448.88
2023-01-08T10:01:35.835Z,99450.25
2023-01-08T10:04:23.953Z,99462.16
2023-01-08T10:06:57.005Z,99457.47
2023-01-08T10:09:31.391Z,99451.09
2023-01-08T10:12:06.319Z,99443.91
2023-01-08T10:14:39.703Z,99435.00
2023-01-08T10:17:38.645Z,99434.69
2023-01-08T10:20:23.378Z,99431.66
2023-01-08T10:22:54.360Z,99427.31
2023-01-08T10:25:27.321Z,99421.28
2023-01-08T10:28:03.130Z,99420.63
2023-01-08T10:30:39.897Z,99407.56
2023-01-08T10:33:18.569Z,99402.03
2023-01-08T10:36:09.732Z,99401.88
2023-01-08T10:38:50.090Z,99400.69
2023-01-08T10:41:19.692Z,99396.50
2023-01-08T10:44:04.225Z,99392.28
2023-01-08T10:46:52.376Z,99393.81
2023-01-08T10:49:59.254Z,99393.81
2023-01-08T11:15:41.961Z,99384.22
2023-01-08T11:36:39.021Z,99356.84
2023-01-08T11:39:09.489Z,99358.19
2023-01-08T11:45:43.806Z,99356.50
2023-01-08T11:49:07.148Z,99373.66
2023-01-08T11:51:59.774Z,99368.94
2023-01-08T11:55:12.998Z,99363.88
2023-01-08T11:58:31.897Z,99359.38
2023-01-08T12:01:41.770Z,99363.88
2023-01-08T12:05:33.296Z,99352.16
2023-01-08T12:11:49.978Z,99353.31
2023-01-08T12:15:42.419Z,99347.41
2023-01-08T12:18:49.334Z,99338.13
2023-01-08T12:21:55.987Z,99330.34
2023-01-08T12:25:06.633Z,99319.84
2023-01-08T12:28:32.478Z,99320.31
2023-01-08T12:32:02.561Z,99321.66
2023-01-08T12:34:55.293Z,99315.25
2023-01-08T12:40:35.735Z,99303.53
2023-01-08T12:43:17.590Z,99308.75
2023-01-08T13:06:28.333Z,99295.72
2023-01-08T13:09:01.371Z,99299.00
2023-01-08T13:28:51.567Z,99270.78
2023-01-08T13:31:28.603Z,99280.53
2023-01-08T13:47:46.448Z,99271.59
2023-01-08T13:53:38.950Z,99272.84
2023-01-08T13:56:09.781Z,99264.56
2023-01-08T13:58:49.523Z,99261.03
2023-01-08T14:12:26.369Z,99260.91
2023-01-08T14:17:45.017Z,99252.91
2023-01-08T14:20:13.092Z,99244.38
2023-01-08T14:22:57.019Z,99247.84
2023-01-08T14:25:24.703Z,99246.38
2023-01-08T14:28:03.479Z,99246.19
2023-01-08T14:30:37.319Z,99248.84
2023-01-08T14:35:55.192Z,99242.59
2023-01-08T14:55:51.290Z,99228.63
2023-01-08T15:27:58.176Z,99221.50
2023-01-08T15:33:30.971Z,99226.16
2023-01-08T15:35:58.720Z,99222.72
2023-01-08T15:38:25.467Z,99220.78
2023-01-08T15:40:53.493Z,99219.06
2023-01-08T15:48:43.070Z,99220.09
2023-01-08T15:56:31.974Z,99222.41
2023-01-08T16:01:40.371Z,99217.63
2023-01-08T16:06:51.342Z,99223.09
2023-01-08T16:49:44.895Z,99210.78
2023-01-08T16:54:52.653Z,99215.34
2023-01-08T16:57:19.391Z,99216.09
2023-01-08T16:59:48.210Z,99211.91
2023-01-08T17:37:18.971Z,99186.72
2023-01-08T17:39:45.657Z,99180.75
2023-01-08T17:42:27.509Z,99169.94
2023-01-08T17:45:00.195Z,99174.03
2023-01-08T17:47:31.627Z,99170.56
2023-01-08T17:49:58.645Z,99178.47
2023-01-08T17:52:26.514Z,99177.47
2023-01-08T17:54:54.039Z,99171.09
2023-01-08T17:57:22.307Z,99169.47
2023-01-08T17:59:50.149Z,99176.03
2023-01-08T18:02:17.752Z,99167.16
2023-01-08T18:07:29.396Z,99161.47
2023-01-08T18:09:57.171Z,99164.00
2023-01-08T18:12:23.808Z,99165.81
2023-01-08T18:14:50.803Z,99155.97
2023-01-08T18:17:18.007Z,99147.75
2023-01-08T18:19:44.913Z,99151.13
2023-01-08T18:22:11.703Z,99142.94
2023-01-08T18:24:38.346Z,99141.91
2023-01-08T18:27:04.974Z,99139.25
2023-01-08T18:29:31.842Z,99144.78
2023-01-08T18:31:58.519Z,99140.09
2023-01-08T18:34:26.014Z,99143.16
2023-01-08T18:36:52.671Z,99131.28
2023-01-08T18:39:19.298Z,99131.78
2023-01-08T18:42:07.025Z,99131.47
2023-01-08T18:44:33.708Z,99132.16
2023-01-08T18:47:03.068Z,99127.63
2023-01-08T18:49:29.740Z,99129.47
2023-01-08T18:51:56.362Z,99133.50
2023-01-08T18:54:22.979Z,99130.81
2023-01-08T18:56:58.631Z,99134.34
2023-01-08T18:59:27.142Z,99130.00
2023-01-08T19:01:53.891Z,99127.84
2023-01-08T19:04:20.680Z,99125.16
2023-01-08T19:06:50.065Z,99124.63
2023-01-08T19:09:22.895Z,99136.47
2023-01-08T19:12:01.332Z,99136.47
2023-01-08T19:14:28.189Z,99137.97
2023-01-08T19:16:54.956Z,99144.66
2023-01-08T19:19:22.023Z,99132.25
2023-01-08T19:21:50.428Z,99139.31
2023-01-08T19:24:31.928Z,99133.09
2023-01-08T19:26:58.611Z,99126.22
2023-01-08T19:29:25.201Z,99123.75
2023-01-08T19:31:51.979Z,99120.19
2023-01-08T19:34:19.366Z,99123.56
2023-01-08T19:36:46.045Z,99113.03
2023-01-08T19:39:13.214Z,99116.53
2023-01-08T19:41:58.948Z,99112.72
2023-01-08T19:47:08.455Z,99118.91
2023-01-08T20:05:46.900Z,99101.00
2023-01-08T20:08:13.789Z,99095.78
2023-01-08T20:10:40.618Z,99088.94
2023-01-08T20:13:10.598Z,99096.47
2023-01-08T20:15:37.395Z,99098.09
2023-01-08T20:37:01.401Z,99081.59
2023-01-08T20:39:28.102Z,99077.72
2023-01-08T20:41:55.859Z,99081.69
2023-01-08T21:05:53.255Z,99060.63
2023-01-08T21:29:58.685Z,99033.41
2023-01-08T21:32:33.192Z,99032.72
2023-01-08T21:37:40.853Z,99026.88
2023-01-08T22:07:55.095Z,99000.72
2023-01-08T22:10:21.797Z,99008.81
2023-01-08T22:39:40.353Z,98983.34
2023-01-08T22:42:07.238Z,98983.81
2023-01-08T22:44:34.164Z,98978.47
2023-01-08T22:47:02.540Z,98964.72
2023-01-08T22:49:29.253Z,98967.13
2023-01-08T22:51:57.159Z,98961.78
2023-01-08T22:54:23.880Z,98965.50
2023-01-08T22:56:50.672Z,98960.19
2023-01-08T22:59:17.372Z,98961.56
2023-01-08T23:01:44.101Z,98960.88
2023-01-08T23:04:11.081Z,98957.50
2023-01-08T23:06:37.892Z,98956.03
2023-01-08T23:09:04.927Z,98954.75
2023-01-08T23:11:32.521Z,98943.47
2023-01-08T23:14:01.237Z,98939.59
2023-01-08T23:16:28.113Z,98936.91
2023-01-08T23:18:56.050Z,98932.03
2023-01-08T23:21:26.494Z,98933.88
2023-01-08T23:23:53.236Z,98932.22
2023-01-08T23:26:29.761Z,98930.38
2023-01-08T23:28:58.971Z,98934.56
2023-01-08T23:31:30.894Z,98932.69
2023-01-08T23:33:58.305Z,98931.63
2023-01-08T23:36:27.985Z,98919.72
2023-01-08T23:38:56.678Z,98914.97
2023-01-08T23:41:34.436Z,98915.28
2023-01-08T23:44:07.390Z,98906.50
2023-01-08T23:46:35.227Z,98891.19
2023-01-08T23:49:02.034Z,98906.22
2023-01-08T23:51:29.450Z,98903.84
2023-01-08T23:53:56.479Z,98905.78
2023-01-08T23:56:26.363Z,98903.09
2023-01-08T23:58:53.988Z,98898.84
